createdAt,value
2023-04-04T00:00:40.651Z,3.61
2023-04-04T00:05:42.727Z,3.60
2023-04-04T00:10:44.105Z,3.50
2023-04-04T00:15:45.477Z,3.46
2023-04-04T00:20:46.888Z,3.38
2023-04-04T00:25:52.255Z,3.27
2023-04-04T00:30:54.416Z,3.27
2023-04-04T00:35:55.862Z,3.20
2023-04-04T00:40:57.611Z,3.17
2023-04-04T00:45:59.179Z,3.07
2023-04-04T00:51:00.754Z,3.03
2023-04-04T00:56:02.180Z,2.97
2023-04-04T01:01:05.632Z,2.96
2023-04-04T01:06:08.336Z,2.95
2023-04-04T01:11:10.034Z,2.95
2023-04-04T01:16:11.385Z,2.91
2023-04-04T01:21:17.062Z,2.89
2023-04-04T01:26:21.826Z,2.86
2023-04-04T01:31:31.604Z,2.81
2023-04-04T01:36:43.060Z,2.83
2023-04-04T01:41:48.361Z,2.80
2023-04-04T01:46:54.898Z,2.78
2023-04-04T01:51:56.847Z,2.70
2023-04-04T01:56:58.341Z,2.69
2023-04-04T02:01:59.720Z,2.69
2023-04-04T02:07:01.021Z,2.66
2023-04-04T02:12:02.447Z,2.58
2023-04-04T02:17:03.895Z,2.58
2023-04-04T02:22:05.986Z,2.55
2023-04-04T02:27:07.305Z,2.53
2023-04-04T02:32:08.606Z,2.52
2023-04-04T02:37:10.254Z,2.54
2023-04-04T02:42:11.615Z,2.52
2023-04-04T02:47:13.096Z,2.51
2023-04-04T02:52:14.480Z,2.49
2023-04-04T02:57:16.141Z,2.53
2023-04-04T03:02:17.583Z,2.55
2023-04-04T03:07:19.351Z,2.51
2023-04-04T03:12:21.752Z,2.44
2023-04-04T03:17:23.268Z,2.42
2023-04-04T03:22:24.691Z,2.40
2023-04-04T03:27:26.560Z,2.35
2023-04-04T03:32:28.647Z,2.33
2023-04-04T03:37:30.419Z,2.31
2023-04-04T03:42:34.965Z,2.24
2023-04-04T03:47:36.401Z,2.23
2023-04-04T03:52:41.676Z,2.22
2023-04-04T03:57:43.251Z,2.21
2023-04-04T04:02:44.785Z,2.17
2023-04-04T04:07:46.596Z,2.23
2023-04-04T04:12:48.180Z,2.22
2023-04-04T04:17:49.601Z,2.18
2023-04-04T04:22:53.343Z,2.13
2023-04-04T04:27:56.901Z,2.13
2023-04-04T04:32:58.400Z,2.12
2023-04-04T04:37:59.726Z,2.07
2023-04-04T04:43:01.301Z,2.01
2023-04-04T04:48:02.700Z,1.95
2023-04-04T04:53:04.348Z,1.93
2023-04-04T04:58:06.158Z,1.97
2023-04-04T05:03:07.573Z,2.08
2023-04-04T05:08:08.996Z,2.11
2023-04-04T05:13:10.554Z,2.14
2023-04-04T05:18:12.076Z,2.18
2023-04-04T05:23:13.741Z,2.29
2023-04-04T05:28:15.125Z,2.35
2023-04-04T05:33:16.482Z,2.42
2023-04-04T05:38:17.868Z,2.46
2023-04-04T05:43:19.208Z,2.60
2023-04-04T05:48:21.030Z,2.66
2023-04-04T05:53:22.437Z,2.77
2023-04-04T05:58:23.796Z,2.89
2023-04-04T06:03:25.462Z,3.06
2023-04-04T06:08:27.093Z,3.18
2023-04-04T06:13:28.462Z,3.27
2023-04-04T06:18:29.838Z,3.37
2023-04-04T06:23:31.502Z,3.53
2023-04-04T06:28:32.944Z,3.69
2023-04-04T06:33:34.289Z,3.74
2023-04-04T06:38:36.517Z,3.90
2023-04-04T06:43:37.854Z,4.02
2023-04-04T06:48:39.175Z,4.22
2023-04-04T06:53:40.543Z,4.43
2023-04-04T06:58:41.994Z,4.55
2023-04-04T07:03:44.555Z,4.76
2023-04-04T07:08:45.974Z,5.03
2023-04-04T07:13:47.394Z,5.21
2023-04-04T07:18:48.733Z,5.42
2023-04-04T07:23:51.033Z,5.54
2023-04-04T07:28:52.881Z,5.65
2023-04-04T07:33:54.219Z,5.74
2023-04-04T07:38:55.696Z,5.85
2023-04-04T07:43:57.083Z,5.94
2023-04-04T07:48:58.575Z,6.03
2023-04-04T07:53:59.880Z,6.17
2023-04-04T07:59:01.643Z,6.41
2023-04-04T08:04:03.206Z,6.45
2023-04-04T08:09:04.948Z,6.48
2023-04-04T08:14:06.307Z,6.70
2023-04-04T08:19:08.374Z,6.83
2023-04-04T08:24:09.788Z,7.03
2023-04-04T08:29:11.295Z,7.19
2023-04-04T08:34:13.470Z,7.29
2023-04-04T08:39:14.873Z,7.24
2023-04-04T08:44:20.416Z,7.37
2023-04-04T08:49:23.802Z,7.26
2023-04-04T08:54:26.237Z,7.27
2023-04-04T08:59:27.711Z,7.38
2023-04-04T09:04:29.292Z,7.75
2023-04-04T09:09:34.299Z,7.98
2023-04-04T09:14:38.721Z,8.20
2023-04-04T09:19:40.054Z,8.30
2023-04-04T09:24:43.409Z,8.37
2023-04-04T09:29:44.741Z,8.45
2023-04-04T09:34:46.179Z,8.60
2023-04-04T09:39:48.400Z,8.89
2023-04-04T09:44:54.672Z,9.12
2023-04-04T09:50:00.674Z,9.11
2023-04-04T09:55:04.798Z,9.29
2023-04-04T10:00:09.441Z,9.45
2023-04-04T10:05:11.283Z,9.55
2023-04-04T10:10:13.785Z,9.79
2023-04-04T10:15:16.560Z,9.86
2023-04-04T10:20:19.026Z,9.86
2023-04-04T10:25:20.552Z,10.00
2023-04-04T10:30:21.908Z,10.24
2023-04-04T10:35:24.915Z,10.43
2023-04-04T10:40:33.160Z,10.79
2023-04-04T10:45:38.400Z,11.36
2023-04-04T10:50:41.022Z,11.66
2023-04-04T10:55:44.576Z,12.19
2023-04-04T11:00:54.989Z,12.28
2023-04-04T11:06:01.690Z,12.62
2023-04-04T11:11:09.693Z,12.60
2023-04-04T11:16:19.260Z,12.78
2023-04-04T11:21:28.116Z,13.30
2023-04-04T11:26:29.884Z,13.21
2023-04-04T11:31:40.029Z,13.10
2023-04-04T11:36:43.004Z,12.90
2023-04-04T11:41:59.643Z,13.08
2023-04-04T11:47:11.898Z,13.20
2023-04-04T11:52:15.774Z,13.21
2023-04-04T11:57:19.248Z,13.61
2023-04-04T12:02:27.168Z,13.72
2023-04-04T12:07:29.338Z,13.80
2023-04-04T12:12:31.075Z,13.75
2023-04-04T12:17:34.470Z,13.73
2023-04-04T12:22:36.444Z,14.28
2023-04-04T12:27:37.828Z,14.43
2023-04-04T12:32:39.334Z,13.80
2023-04-04T12:37:57.176Z,14.33
2023-04-04T12:43:00.051Z,14.75
2023-04-04T12:48:01.496Z,15.02
2023-04-04T12:53:24.329Z,15.26
2023-04-04T12:58:27.212Z,15.47
2023-04-04T13:03:29.372Z,15.53
2023-04-04T13:08:31.732Z,15.99
2023-04-04T13:13:56.252Z,16.06
2023-04-04T13:18:57.634Z,15.99
2023-04-04T13:23:58.982Z,15.92
2023-04-04T13:29:00.319Z,14.81
2023-04-04T13:34:01.643Z,15.58
2023-04-04T13:39:03.006Z,15.74
2023-04-04T13:44:04.330Z,15.88
2023-04-04T13:49:05.828Z,15.91
2023-04-04T13:54:07.286Z,16.13
2023-04-04T13:59:08.835Z,16.22
2023-04-04T14:04:22.657Z,16.21
2023-04-04T14:09:25.336Z,16.24
2023-04-04T14:14:26.760Z,16.72
2023-04-04T14:19:28.268Z,17.07
2023-04-04T14:24:29.646Z,17.38
2023-04-04T14:29:31.166Z,17.43
2023-04-04T14:34:32.594Z,17.92
2023-04-04T14:39:33.996Z,18.26
2023-04-04T14:44:35.403Z,19.31
2023-04-04T14:49:36.809Z,20.76
2023-04-04T14:54:38.170Z,21.06
2023-04-04T14:59:39.534Z,20.99
2023-04-04T15:04:42.518Z,20.66
2023-04-04T15:09:44.163Z,19.45
2023-04-04T15:14:46.112Z,18.52
2023-04-04T15:19:47.424Z,17.63
2023-04-04T15:24:48.824Z,17.42
2023-04-04T15:29:50.383Z,18.01
2023-04-04T15:34:51.837Z,17.97
2023-04-04T15:39:54.257Z,17.42
2023-04-04T15:44:56.012Z,16.64
2023-04-04T15:49:57.351Z,16.45
2023-04-04T15:54:58.730Z,15.97
2023-04-04T16:00:00.215Z,15.78
2023-04-04T16:05:01.907Z,15.45
2023-04-04T16:10:03.869Z,15.39
2023-04-04T16:15:07.536Z,15.19
2023-04-04T16:20:09.681Z,15.26
2023-04-04T16:25:11.160Z,14.98
2023-04-04T16:30:13.992Z,14.85
2023-04-04T16:35:15.597Z,14.57
2023-04-04T16:40:18.564Z,14.43
2023-04-04T16:45:19.994Z,14.41
2023-04-04T16:50:21.334Z,14.48
2023-04-04T16:55:26.121Z,14.19
2023-04-04T17:00:27.574Z,14.11
2023-04-04T17:05:28.895Z,14.21
2023-04-04T17:10:31.161Z,13.91
2023-04-04T17:15:32.679Z,13.56
2023-04-04T17:20:34.582Z,13.33
2023-04-04T17:25:36.517Z,13.22
2023-04-04T17:30:38.007Z,12.98
2023-04-04T17:35:39.933Z,12.66
2023-04-04T17:40:41.956Z,12.47
2023-04-04T17:45:44.064Z,12.21
2023-04-04T17:50:45.463Z,11.96
2023-04-04T17:55:46.854Z,11.73
2023-04-04T18:00:48.368Z,11.45
2023-04-04T18:05:49.914Z,11.20
2023-04-04T18:10:52.220Z,10.98
2023-04-04T18:15:53.680Z,10.81
2023-04-04T18:20:55.162Z,10.65
2023-04-04T18:25:56.622Z,10.41
2023-04-04T18:30:58.553Z,10.23
2023-04-04T18:36:00.342Z,10.04
2023-04-04T18:41:01.838Z,9.89
2023-04-04T18:46:05.171Z,9.70
2023-04-04T18:51:07.894Z,9.55
2023-04-04T18:56:09.603Z,9.37
2023-04-04T19:01:11.779Z,9.19
2023-04-04T19:06:14.459Z,9.05
2023-04-04T19:11:16.238Z,8.91
2023-04-04T19:16:18.271Z,8.83
2023-04-04T19:21:19.701Z,8.71
2023-04-04T19:26:21.381Z,8.63
2023-04-04T19:31:24.372Z,8.54
2023-04-04T19:36:26.201Z,8.43
2023-04-04T19:41:35.240Z,8.30
2023-04-04T19:46:36.721Z,8.16
2023-04-04T19:51:40.531Z,8.06
2023-04-04T19:56:44.947Z,7.92
2023-04-04T20:01:59.775Z,7.80
2023-04-04T20:07:02.042Z,7.63
2023-04-04T20:12:05.032Z,7.46
2023-04-04T20:17:06.801Z,7.33
2023-04-04T20:22:08.155Z,7.18
2023-04-04T20:27:10.424Z,7.06
2023-04-04T20:32:11.954Z,6.71
2023-04-04T20:37:20.890Z,6.54
2023-04-04T20:42:31.256Z,6.45
2023-04-04T20:47:46.204Z,6.37
2023-04-04T20:52:59.399Z,6.32
2023-04-04T20:58:08.631Z,6.36
2023-04-04T21:03:26.044Z,6.39
2023-04-04T21:08:37.270Z,6.46
2023-04-04T21:13:43.739Z,6.40
2023-04-04T21:18:45.639Z,6.40
2023-04-04T21:23:55.274Z,6.43
2023-04-04T21:28:59.340Z,6.33
2023-04-04T21:34:07.765Z,6.29
2023-04-04T21:39:21.665Z,6.25
2023-04-04T21:44:23.667Z,6.08
2023-04-04T21:49:25.547Z,6.07
2023-04-04T21:54:26.894Z,5.91
2023-04-04T21:59:28.334Z,5.95
2023-04-04T22:04:29.732Z,5.86
2023-04-04T22:09:31.145Z,5.87
2023-04-04T22:14:32.509Z,5.90
2023-04-04T22:19:43.170Z,5.77
2023-04-04T22:24:44.756Z,5.63
2023-04-04T22:29:46.577Z,5.58
2023-04-04T22:34:48.824Z,5.63
2023-04-04T22:39:50.963Z,5.68
2023-04-04T22:44:52.338Z,5.67
2023-04-04T22:49:53.686Z,5.67
2023-04-04T22:54:55.255Z,5.61
2023-04-04T22:59:56.592Z,5.63
2023-04-04T23:04:58.579Z,5.61
2023-04-04T23:10:00.360Z,5.47
2023-04-04T23:15:03.138Z,5.45
2023-04-04T23:20:07.790Z,5.35
2023-04-04T23:25:09.359Z,5.25
2023-04-04T23:30:11.133Z,5.26
2023-04-04T23:35:12.480Z,5.28
2023-04-04T23:40:13.910Z,5.29
2023-04-04T23:45:16.238Z,5.17
2023-04-04T23:50:19.038Z,5.14
2023-04-04T23:55:20.575Z,5.13
